createdAt,value
2023-03-22T07:41:22.598Z,27.08
2023-03-22T07:44:30.067Z,29.10
2023-03-22T07:47:41.996Z,30.73
2023-03-22T07:53:49.330Z,29.83
2023-03-22T07:56:57.835Z,28.48
2023-03-22T08:00:04.960Z,28.02
2023-03-22T08:03:13.415Z,29.10
2023-03-22T08:06:21.645Z,26.95
2023-03-22T08:09:34.133Z,27.65
2023-03-22T08:12:56.173Z,29.70
2023-03-22T08:19:18.652Z,23.02
2023-03-22T08:22:31.747Z,23.52
2023-03-22T08:25:46.293Z,25.88
2023-03-22T08:28:54.616Z,25.15
2023-03-22T08:32:02.543Z,26.40
2023-03-22T08:35:06.539Z,20.05
2023-03-22T08:38:11.045Z,25.05
2023-03-22T08:41:16.091Z,23.58
2023-03-22T08:44:24.574Z,23.90
2023-03-22T08:47:36.553Z,24.42
2023-03-22T08:50:41.390Z,25.65
2023-03-22T08:53:50.748Z,24.23
2023-03-22T08:57:03.376Z,24.15
2023-03-22T09:00:11.103Z,25.45
2023-03-22T09:03:18.945Z,23.00
2023-03-22T09:06:23.572Z,19.55
2023-03-22T09:09:28.940Z,20.45
2023-03-22T09:12:38.374Z,21.33
2023-03-22T09:15:55.921Z,19.90
2023-03-22T09:18:58.580Z,16.75
2023-03-22T09:22:03.672Z,20.08
2023-03-22T09:25:13.971Z,16.48
2023-03-22T09:28:19.285Z,15.18
2023-03-22T09:31:34.187Z,16.50
2023-03-22T09:34:47.701Z,18.77
2023-03-22T09:37:53.396Z,17.02
2023-03-22T09:41:07.627Z,17.90
2023-03-22T09:44:16.787Z,17.02
2023-03-22T09:47:44.451Z,15.43
2023-03-22T09:51:03.512Z,14.85
2023-03-22T09:54:47.132Z,21.73
2023-03-22T09:58:04.954Z,14.18
2023-03-22T10:01:17.062Z,15.88
2023-03-22T10:04:43.704Z,15.73
2023-03-22T10:08:16.819Z,17.02
2023-03-22T10:11:31.600Z,13.35
2023-03-22T10:15:07.159Z,16.40
2023-03-22T10:18:15.934Z,14.00
2023-03-22T10:21:22.582Z,17.02
2023-03-22T10:24:45.449Z,12.52
2023-03-22T10:28:00.254Z,14.20
2023-03-22T10:31:05.682Z,12.48
2023-03-22T10:34:16.617Z,13.30
2023-03-22T10:37:24.925Z,11.07
2023-03-22T10:40:39.754Z,11.93
2023-03-22T10:43:44.296Z,10.38
2023-03-22T10:46:50.284Z,10.65
2023-03-22T10:49:59.221Z,9.63
2023-03-22T10:53:12.356Z,13.50
2023-03-22T10:56:25.517Z,10.77
2023-03-22T10:59:47.266Z,11.18
2023-03-22T11:02:53.869Z,11.77
2023-03-22T11:06:01.349Z,8.45
2023-03-22T11:09:13.729Z,14.43
2023-03-22T11:12:16.846Z,6.20
2023-03-22T11:15:23.782Z,9.73
2023-03-22T11:18:31.382Z,8.77
2023-03-22T11:21:36.591Z,6.78
2023-03-22T11:24:40.453Z,12.80
2023-03-22T11:27:53.033Z,8.60
2023-03-22T11:31:05.707Z,8.13
2023-03-22T11:34:17.181Z,7.82
2023-03-22T11:37:22.642Z,7.75
2023-03-22T11:40:29.049Z,7.60
2023-03-22T11:43:38.067Z,7.60
2023-03-22T11:46:48.704Z,8.52
2023-03-22T11:49:54.443Z,5.90
2023-03-22T11:52:57.423Z,8.80
2023-03-22T11:56:03.081Z,7.90
2023-03-22T11:59:08.515Z,8.20
2023-03-22T12:02:18.952Z,7.95
2023-03-22T12:05:25.570Z,8.45
2023-03-22T12:08:35.173Z,7.95
2023-03-22T12:11:41.392Z,8.55
2023-03-22T12:14:51.234Z,8.20
2023-03-22T12:17:57.514Z,9.18
2023-03-22T12:21:01.199Z,10.68
2023-03-22T12:24:06.277Z,10.07
2023-03-22T12:27:17.842Z,10.13
2023-03-22T12:30:24.655Z,8.38
2023-03-22T12:33:30.038Z,10.23
2023-03-22T12:36:38.128Z,10.10
2023-03-22T12:39:46.130Z,11.40
2023-03-22T12:43:00.326Z,10.73
2023-03-22T12:46:06.473Z,12.23
2023-03-22T12:49:21.536Z,11.85
2023-03-22T12:52:34.850Z,6.07
2023-03-22T12:55:48.259Z,8.63
2023-03-22T12:58:55.943Z,6.60
2023-03-22T13:02:02.128Z,6.28
2023-03-22T13:05:09.260Z,6.13
2023-03-22T13:08:12.012Z,4.65
2023-03-22T13:11:24.651Z,4.68
2023-03-22T13:14:57.986Z,3.88
2023-03-22T13:18:00.486Z,7.57
2023-03-22T13:21:11.410Z,5.93
2023-03-22T13:24:22.617Z,5.13
2023-03-22T13:27:35.494Z,5.30
2023-03-22T13:30:50.069Z,3.65
2023-03-22T13:33:54.413Z,3.70
2023-03-22T13:36:58.116Z,4.25
2023-03-22T13:40:02.232Z,4.70
2023-03-22T13:43:13.923Z,3.80
2023-03-22T13:46:47.566Z,3.28
2023-03-22T13:49:54.159Z,2.53
2023-03-22T13:53:03.944Z,4.13
2023-03-22T13:56:07.936Z,3.20
2023-03-22T13:59:12.501Z,2.95
2023-03-22T14:02:19.365Z,4.07
2023-03-22T14:05:24.302Z,4.70
2023-03-22T14:08:31.270Z,2.42
2023-03-22T14:11:46.766Z,4.32
2023-03-22T14:14:53.467Z,4.15
2023-03-22T14:18:01.642Z,4.07
2023-03-22T14:21:07.768Z,2.75
